Rechercher aéroport 
image banner adimage banner adimage banner ad
image banner ad

15CL - Hunt Farms

Situé à Merced, United States

ICAO - 15CL, IATA -

Données fournies par Airmate  

Information générale

Coordonnées: N37°20'34" W120°24'13"
Élévation : 223 feet MSL.
Variation magnétique : 15° East
Voir autres Aéroports à California

Données opérationnelles

Special qualification required
Heure actuelle UTC:
Heure actuelle locale:
Météo à : KMCE - Merced Rgnl/Macready Field ( 12 km )
METAR: KMCE 212353Z AUTO 16003KT 10SM CLR 35/07 A3001 RMK AO2 SLP161 T03500072 10356 20278 56012 $
TAF: KMCE 211720Z 2118/2218 VRB05KT P6SM SKC TEMPO 2118/2122 5SM HZ FU SCT090
Voir NOTAMs / SUP AIP / TFR affectant cet aéroport [VIEW]
Fréquences de communication: [VIEW]

Pistes:

Identifiant RWYQFULongueur (ft)Largeur (ft)SurfaceLDA (ft)
16230050EARTH
34230050EARTH

Coordonnées de l'aéroport

Adresse: Merced United States

Vue satellite de 15CL